Аэропорт: Ханты-Мансийск. Ханты-Мансийск

ICAO: USHH

METAR:
2019-09-21 16:00:00
USHH 211600Z 14002MPS CAVOK 02/M00 Q1013 R06/010060 NOSIG
METAR:
2019-09-21 13:54:00
TAF USHH 211354Z 2115/2215 18003G08MPS 9999 BKN020 TEMPO 2115/2203 0500 FG SCT003 BKN015 BECMG 2201/2203 11006G14MPS TEMPO 2203/2212 2000 SHRA BKN004 OVC011CB